Chinook, Washington
Current Conditions -  °F | °C
As of 11:55 PM on Friday 24 Oct 2014 (Local Time) from KAST Reporting Station
Overcast Overcast  
Wind Chill: 56°   Ceiling: 5000
Heat Index: 56°   Visibility: 10mi
Dew Point: 50°   Wind: 3mph
Humidity: 80%   Direction: NA
Pressure: 29.63"   Gusts: NA
Location:  46.28°N, 123.94°W
Report Text: KAST 250655Z AUTO VRB03KT 10SM OVC050 13/10 A2963 RMK AO2 SLP032 T01330100
Loading
Personal Weather Stations






























Interactive Weather Map
Tropical Storm Tracking
New forecast layout! Learn more

10-Day Weather Forecast

Advertisements
Track Severe Weather on mobile